createdAt,value
2023-02-09T00:01:25.921Z,36
2023-02-09T00:03:56.092Z,36
2023-02-09T00:06:26.063Z,35
2023-02-09T00:08:55.969Z,34
2023-02-09T00:11:25.928Z,34
2023-02-09T00:13:55.980Z,36
2023-02-09T00:16:26.232Z,39
2023-02-09T00:18:56.335Z,36
2023-02-09T00:21:26.267Z,35
2023-02-09T00:23:56.250Z,36
2023-02-09T00:26:26.361Z,32
2023-02-09T00:28:56.347Z,32
2023-02-09T00:31:26.428Z,36
2023-02-09T00:33:56.296Z,32
2023-02-09T00:36:26.353Z,40
2023-02-09T00:38:55.903Z,36
2023-02-09T00:41:26.046Z,32
2023-02-09T00:43:56.036Z,34
2023-02-09T00:46:26.004Z,36
2023-02-09T00:48:55.871Z,32
2023-02-09T00:51:25.996Z,32
2023-02-09T00:53:55.894Z,36
2023-02-09T00:56:26.014Z,36
2023-02-09T00:58:56.037Z,36
2023-02-09T01:01:26.205Z,36
2023-02-09T01:03:56.192Z,36
2023-02-09T01:06:26.186Z,35
2023-02-09T01:08:56.412Z,32
2023-02-09T01:11:26.389Z,30
2023-02-09T01:13:56.471Z,32
2023-02-09T01:16:26.583Z,32
2023-02-09T01:18:56.409Z,32
2023-02-09T01:21:26.334Z,34
2023-02-09T01:23:56.218Z,35
2023-02-09T01:26:26.325Z,36
2023-02-09T01:28:56.337Z,35
2023-02-09T01:31:26.478Z,36
2023-02-09T01:33:56.547Z,32
2023-02-09T01:36:26.600Z,33
2023-02-09T01:38:56.034Z,36
2023-02-09T01:41:26.039Z,36
2023-02-09T01:43:56.087Z,36
2023-02-09T01:46:26.104Z,35
2023-02-09T01:48:56.091Z,36
2023-02-09T01:51:26.223Z,36
2023-02-09T01:53:56.163Z,34
2023-02-09T01:56:25.584Z,36
2023-02-09T01:58:55.539Z,36
2023-02-09T02:01:25.597Z,35
2023-02-09T02:03:55.656Z,36
2023-02-09T02:06:25.432Z,34
2023-02-09T02:08:55.352Z,35
2023-02-09T02:11:25.302Z,36
2023-02-09T02:13:55.346Z,36
2023-02-09T02:16:25.249Z,32
2023-02-09T02:18:55.398Z,36
2023-02-09T02:21:25.454Z,33
2023-02-09T02:23:55.337Z,32
2023-02-09T02:26:25.332Z,32
2023-02-09T02:28:55.267Z,36
2023-02-09T02:31:25.510Z,36
2023-02-09T02:33:55.488Z,32
2023-02-09T02:36:25.607Z,36
2023-02-09T02:38:55.748Z,37
2023-02-09T02:41:25.734Z,36
2023-02-09T02:43:55.878Z,32
2023-02-09T02:46:25.820Z,36
2023-02-09T02:48:55.635Z,36
2023-02-09T02:51:25.595Z,36
2023-02-09T02:53:55.690Z,33
2023-02-09T02:56:25.572Z,32
2023-02-09T02:58:55.380Z,33
2023-02-09T03:01:25.416Z,36
2023-02-09T03:03:55.454Z,36
2023-02-09T03:06:25.421Z,37
2023-02-09T03:08:55.364Z,33
2023-02-09T03:11:25.456Z,28
2023-02-09T03:13:55.596Z,35
2023-02-09T03:16:25.664Z,32
2023-02-09T03:18:55.770Z,36
2023-02-09T03:21:25.814Z,32
2023-02-09T03:23:55.975Z,32
2023-02-09T03:26:25.904Z,32
2023-02-09T03:28:55.820Z,28
2023-02-09T03:31:26.016Z,28
2023-02-09T03:33:56.001Z,32
2023-02-09T03:36:26.083Z,31
2023-02-09T03:38:55.834Z,30
2023-02-09T03:41:25.950Z,32
2023-02-09T03:43:56.066Z,32
2023-02-09T03:46:26.192Z,32
2023-02-09T03:48:56.294Z,30
2023-02-09T03:51:26.361Z,32
2023-02-09T03:53:56.293Z,28
2023-02-09T03:56:26.164Z,28
2023-02-09T03:58:56.056Z,28
2023-02-09T04:01:25.902Z,32
2023-02-09T04:03:56.000Z,28
2023-02-09T04:06:26.061Z,32
2023-02-09T04:08:56.210Z,28
2023-02-09T04:11:26.152Z,31
2023-02-09T04:13:56.358Z,28
2023-02-09T04:16:26.456Z,29
2023-02-09T04:18:56.548Z,30
2023-02-09T04:21:26.541Z,30
2023-02-09T04:23:56.557Z,32
2023-02-09T04:26:26.565Z,32
2023-02-09T04:28:56.579Z,44
2023-02-09T04:31:26.787Z,36
2023-02-09T04:33:56.627Z,32
2023-02-09T04:36:26.759Z,34
2023-02-09T04:38:56.579Z,32
2023-02-09T04:41:26.641Z,32
2023-02-09T04:43:56.522Z,36
2023-02-09T04:46:26.339Z,35
2023-02-09T04:48:56.243Z,36
2023-02-09T04:51:26.016Z,32
2023-02-09T04:53:55.934Z,32
2023-02-09T04:56:26.046Z,32
2023-02-09T04:58:56.070Z,32
2023-02-09T05:01:26.018Z,32
2023-02-09T05:03:55.988Z,32
2023-02-09T05:06:25.764Z,32
2023-02-09T05:08:55.683Z,35
2023-02-09T05:11:25.863Z,32
2023-02-09T05:13:55.862Z,35
2023-02-09T05:16:25.990Z,32
2023-02-09T05:18:56.053Z,32
2023-02-09T05:21:25.857Z,32
2023-02-09T05:23:55.995Z,32
2023-02-09T05:26:26.104Z,31
2023-02-09T05:28:56.062Z,32
2023-02-09T05:31:25.983Z,32
2023-02-09T05:33:55.856Z,32
2023-02-09T05:36:25.936Z,33
2023-02-09T05:38:56.080Z,35
2023-02-09T05:41:26.018Z,32
2023-02-09T05:43:55.953Z,32
2023-02-09T05:46:26.045Z,32
2023-02-09T05:48:55.940Z,36
2023-02-09T05:51:25.899Z,32
2023-02-09T05:53:55.777Z,40
2023-02-09T05:56:25.364Z,36
2023-02-09T05:58:55.302Z,42
2023-02-09T06:01:24.401Z,49
2023-02-09T06:03:54.082Z,35
2023-02-09T06:06:24.202Z,42
2023-02-09T06:08:54.258Z,41
2023-02-09T06:11:24.228Z,36
2023-02-09T06:13:54.296Z,40
2023-02-09T06:16:24.417Z,36
2023-02-09T06:18:54.459Z,37
2023-02-09T06:21:24.094Z,40
2023-02-09T06:23:54.224Z,40
2023-02-09T06:26:24.432Z,44
2023-02-09T06:28:54.403Z,36
2023-02-09T06:31:24.300Z,36
2023-02-09T06:33:54.226Z,42
2023-02-09T06:36:24.130Z,45
2023-02-09T06:38:54.264Z,40
2023-02-09T06:41:24.334Z,44
2023-02-09T06:43:54.381Z,43
2023-02-09T06:46:24.531Z,54
2023-02-09T06:48:54.593Z,64
2023-02-09T06:51:24.541Z,52
2023-02-09T06:53:53.918Z,83
2023-02-09T06:56:23.383Z,59
2023-02-09T06:58:52.157Z,58
2023-02-09T07:04:01.511Z,62
2023-02-09T07:06:31.483Z,43
2023-02-09T07:09:01.428Z,49
2023-02-09T07:11:31.451Z,50
2023-02-09T07:14:01.261Z,49
2023-02-09T07:16:31.110Z,44
2023-02-09T07:19:01.271Z,44
2023-02-09T07:21:31.244Z,51
2023-02-09T07:24:00.984Z,39
2023-02-09T07:26:36.034Z,45
2023-02-09T07:29:14.961Z,36
2023-02-09T07:31:46.992Z,38
2023-02-09T07:34:22.280Z,42
2023-02-09T07:36:51.986Z,32
2023-02-09T07:42:03.401Z,32
2023-02-09T07:44:33.022Z,32
2023-02-09T07:47:03.169Z,30
2023-02-09T07:49:33.232Z,32
2023-02-09T07:52:03.344Z,39
2023-02-09T07:54:33.137Z,36
2023-02-09T07:57:03.115Z,32
2023-02-09T07:59:33.031Z,32
2023-02-09T08:02:03.076Z,36
2023-02-09T08:04:32.868Z,32
2023-02-09T08:07:02.856Z,36
2023-02-09T08:09:33.394Z,31
2023-02-09T08:12:03.030Z,32
2023-02-09T08:14:33.020Z,29
2023-02-09T08:17:03.576Z,32
2023-02-09T08:19:36.385Z,36
2023-02-09T08:22:06.662Z,32
2023-02-09T08:24:36.726Z,32
2023-02-09T08:27:12.669Z,28
2023-02-09T08:29:42.810Z,23
2023-02-09T08:32:12.871Z,28
2023-02-09T08:34:42.534Z,29
2023-02-09T08:37:12.624Z,28
2023-02-09T08:39:43.109Z,28
2023-02-09T08:42:13.240Z,31
2023-02-09T08:44:42.872Z,28
2023-02-09T08:47:13.182Z,30
2023-02-09T08:49:43.008Z,32
2023-02-09T08:52:12.954Z,32
2023-02-09T08:54:42.658Z,29
2023-02-09T08:57:12.558Z,32
2023-02-09T08:59:43.097Z,28
2023-02-09T09:02:12.810Z,32
2023-02-09T09:04:43.392Z,27
2023-02-09T09:07:13.373Z,26
2023-02-09T09:09:43.066Z,26
2023-02-09T09:12:13.055Z,30
2023-02-09T09:14:43.484Z,29
2023-02-09T09:17:13.512Z,28
2023-02-09T09:22:33.428Z,24
2023-02-09T09:25:02.855Z,23
2023-02-09T09:27:32.838Z,24
2023-02-09T09:30:02.582Z,24
2023-02-09T09:32:32.284Z,29
2023-02-09T09:35:02.432Z,28
2023-02-09T09:37:32.442Z,28
2023-02-09T09:40:03.240Z,36
2023-02-09T09:42:32.994Z,28
2023-02-09T09:47:38.697Z,48
2023-02-09T09:50:09.235Z,28
2023-02-09T09:52:39.017Z,26
2023-02-09T09:55:09.443Z,24
2023-02-09T09:57:39.321Z,24
2023-02-09T10:00:10.157Z,24
2023-02-09T10:02:40.165Z,28
2023-02-09T10:05:10.217Z,32
2023-02-09T10:07:40.814Z,28
2023-02-09T10:10:10.563Z,29
2023-02-09T10:12:41.346Z,30
2023-02-09T10:15:10.898Z,24
2023-02-09T10:17:41.773Z,32
2023-02-09T10:20:11.193Z,24
2023-02-09T10:22:41.433Z,20
2023-02-09T10:25:11.436Z,32
2023-02-09T10:27:42.214Z,16
2023-02-09T10:30:12.277Z,20
2023-02-09T10:35:12.725Z,24
2023-02-09T10:37:40.700Z,20
2023-02-09T10:40:11.207Z,17
2023-02-09T10:42:45.118Z,20
2023-02-09T10:45:13.787Z,20
2023-02-09T10:47:44.505Z,20
2023-02-09T10:50:14.446Z,12
2023-02-09T10:52:44.386Z,20
2023-02-09T10:55:15.532Z,12
2023-02-09T10:57:44.776Z,16
2023-02-09T11:00:14.768Z,18
2023-02-09T11:02:45.523Z,16
2023-02-09T11:05:19.121Z,21
2023-02-09T11:07:48.737Z,20
2023-02-09T11:10:18.523Z,30
2023-02-09T11:12:49.280Z,24
2023-02-09T11:15:19.031Z,25
2023-02-09T11:17:49.168Z,24
2023-02-09T11:20:19.880Z,20
2023-02-09T11:22:50.611Z,20
2023-02-09T11:25:20.334Z,20
2023-02-09T11:27:50.574Z,25
2023-02-09T11:30:21.786Z,20
2023-02-09T11:32:52.224Z,12
2023-02-09T11:35:22.196Z,20
2023-02-09T11:37:51.511Z,24
2023-02-09T11:40:22.297Z,20
2023-02-09T11:42:54.433Z,16
2023-02-09T11:45:23.871Z,24
2023-02-09T11:47:53.654Z,21
2023-02-09T11:50:23.772Z,27
2023-02-09T11:52:53.516Z,22
2023-02-09T11:55:23.476Z,24
2023-02-09T11:57:53.523Z,20
2023-02-09T12:00:23.907Z,16
2023-02-09T12:02:54.141Z,16
2023-02-09T12:05:23.824Z,16
2023-02-09T12:07:53.967Z,20
2023-02-09T12:10:26.066Z,14
2023-02-09T12:12:55.492Z,18
2023-02-09T12:15:25.913Z,27
2023-02-09T12:17:58.857Z,24
2023-02-09T12:20:28.676Z,22
2023-02-09T12:22:58.892Z,24
2023-02-09T12:25:30.320Z,24
2023-02-09T12:27:59.498Z,20
2023-02-09T12:30:29.674Z,14
2023-02-09T12:32:59.652Z,16
2023-02-09T12:35:30.579Z,18
2023-02-09T12:38:00.573Z,16
2023-02-09T12:40:31.243Z,20
2023-02-09T12:43:01.093Z,20
2023-02-09T12:45:31.136Z,16
2023-02-09T12:48:01.181Z,16
2023-02-09T12:50:30.817Z,16
2023-02-09T12:53:00.760Z,22
2023-02-09T12:55:32.587Z,24
2023-02-09T12:58:02.464Z,26
2023-02-09T13:00:41.286Z,28
2023-02-09T13:03:11.402Z,20
2023-02-09T13:05:40.970Z,21
2023-02-09T13:08:11.186Z,28
2023-02-09T13:10:40.571Z,16
2023-02-09T13:13:13.445Z,16
2023-02-09T13:15:43.272Z,24
2023-02-09T13:18:16.075Z,20
2023-02-09T13:20:45.386Z,24
2023-02-09T13:23:18.610Z,20
2023-02-09T13:25:48.950Z,20
2023-02-09T13:30:48.857Z,23
2023-02-09T13:33:19.486Z,22
2023-02-09T13:35:49.848Z,21
2023-02-09T13:38:20.639Z,44
2023-02-09T13:40:50.610Z,47
2023-02-09T13:43:20.409Z,24
2023-02-09T13:45:50.482Z,27
2023-02-09T13:48:19.657Z,28
2023-02-09T13:50:51.108Z,24
2023-02-09T13:53:22.809Z,24
2023-02-09T13:55:50.943Z,31
2023-02-09T13:58:21.460Z,21
2023-02-09T14:00:51.524Z,22
2023-02-09T14:03:21.392Z,24
2023-02-09T14:05:54.713Z,26
2023-02-09T14:08:24.765Z,28
2023-02-09T14:10:54.857Z,28
2023-02-09T14:13:24.670Z,30
2023-02-09T14:15:53.745Z,27
2023-02-09T14:18:23.103Z,32
2023-02-09T14:20:53.730Z,24
2023-02-09T14:23:23.882Z,25
2023-02-09T14:26:04.905Z,28
2023-02-09T14:28:34.265Z,24
2023-02-09T14:31:04.989Z,32
2023-02-09T14:33:34.717Z,32
2023-02-09T14:36:10.340Z,32
2023-02-09T14:38:42.582Z,25
2023-02-09T14:41:11.860Z,20
2023-02-09T14:43:41.584Z,31
2023-02-09T14:46:13.275Z,28
2023-02-09T14:48:43.226Z,28
2023-02-09T14:51:12.374Z,32
2023-02-09T14:53:44.292Z,28
2023-02-09T14:56:17.028Z,25
2023-02-09T14:58:46.947Z,24
2023-02-09T15:01:16.399Z,28
2023-02-09T15:03:47.938Z,28
2023-02-09T15:06:18.214Z,32
2023-02-09T15:08:47.835Z,29
2023-02-09T15:11:18.452Z,26
2023-02-09T15:13:48.192Z,31
2023-02-09T15:16:18.518Z,32
2023-02-09T15:18:48.142Z,28
2023-02-09T15:21:23.590Z,28
2023-02-09T15:23:52.718Z,35
2023-02-09T15:26:21.410Z,32
2023-02-09T15:28:51.334Z,36
2023-02-09T15:31:21.137Z,36
2023-02-09T15:33:50.888Z,32
2023-02-09T15:36:21.735Z,36
2023-02-09T15:38:51.451Z,28
2023-02-09T15:41:21.406Z,36
2023-02-09T15:43:53.081Z,35
2023-02-09T15:46:22.364Z,36
2023-02-09T15:48:53.799Z,36
2023-02-09T15:51:23.719Z,32
2023-02-09T15:53:53.715Z,40
2023-02-09T15:56:25.465Z,40
2023-02-09T15:58:55.348Z,33
2023-02-09T16:01:25.460Z,40
2023-02-09T16:03:56.710Z,35
2023-02-09T16:06:24.596Z,32
2023-02-09T16:08:54.253Z,36
2023-02-09T16:11:24.253Z,44
2023-02-09T16:13:53.920Z,42
2023-02-09T16:16:23.949Z,44
2023-02-09T16:18:58.482Z,52
2023-02-09T16:21:27.705Z,36
2023-02-09T16:23:57.523Z,40
2023-02-09T16:26:27.839Z,32
2023-02-09T16:28:57.738Z,32
2023-02-09T16:31:27.571Z,36
2023-02-09T16:33:57.081Z,40
2023-02-09T16:36:26.775Z,32
2023-02-09T16:38:56.660Z,36
2023-02-09T16:41:26.709Z,53
2023-02-09T16:43:56.790Z,37
2023-02-09T16:46:26.609Z,43
2023-02-09T16:48:57.321Z,39
2023-02-09T16:51:27.132Z,40
2023-02-09T16:53:57.870Z,36
2023-02-09T16:56:28.001Z,40
2023-02-09T16:58:58.560Z,36
2023-02-09T17:01:28.583Z,48
2023-02-09T17:03:59.329Z,40
2023-02-09T17:06:29.470Z,41
2023-02-09T17:09:00.134Z,36
2023-02-09T17:11:29.928Z,36
2023-02-09T17:13:59.619Z,39
2023-02-09T17:16:29.629Z,45
2023-02-09T17:18:59.707Z,47
2023-02-09T17:21:29.509Z,41
2023-02-09T17:24:00.121Z,44
2023-02-09T17:26:29.954Z,44
2023-02-09T17:29:00.503Z,41
2023-02-09T17:31:34.272Z,40
2023-02-09T17:34:00.173Z,41
2023-02-09T17:36:31.036Z,40
2023-02-09T17:39:00.538Z,41
2023-02-09T17:41:30.071Z,48
2023-02-09T17:44:10.701Z,48
2023-02-09T17:46:30.582Z,44
2023-02-09T17:49:10.499Z,40
2023-02-09T17:51:40.401Z,48
2023-02-09T17:54:10.724Z,48
2023-02-09T17:56:40.174Z,44
2023-02-09T17:59:10.905Z,51
2023-02-09T18:01:40.783Z,52
2023-02-09T18:04:10.628Z,46
2023-02-09T18:09:29.142Z,48
2023-02-09T18:12:07.670Z,48
2023-02-09T18:14:43.189Z,51
2023-02-09T18:22:30.286Z,40
2023-02-09T18:25:00.053Z,40
2023-02-09T18:27:30.158Z,47
2023-02-09T18:29:59.834Z,48
2023-02-09T18:32:29.941Z,40
2023-02-09T18:35:00.569Z,44
2023-02-09T18:37:30.463Z,40
2023-02-09T18:40:01.273Z,47
2023-02-09T18:42:31.016Z,50
2023-02-09T18:45:12.664Z,40
2023-02-09T18:47:42.420Z,44
2023-02-09T18:50:16.795Z,42
2023-02-09T18:52:46.663Z,44
2023-02-09T18:55:16.682Z,42
2023-02-09T18:57:46.366Z,44
2023-02-09T19:00:16.809Z,43
2023-02-09T19:02:46.858Z,48
2023-02-09T19:05:16.619Z,48
2023-02-09T19:07:47.399Z,44
2023-02-09T19:10:16.986Z,48
2023-02-09T19:12:47.958Z,48
2023-02-09T19:15:20.087Z,48
2023-02-09T19:17:51.701Z,48
2023-02-09T19:20:21.396Z,44
2023-02-09T19:23:00.991Z,44
2023-02-09T19:25:29.659Z,44
2023-02-09T19:28:00.352Z,40
2023-02-09T19:30:30.495Z,40
2023-02-09T19:33:00.088Z,49
2023-02-09T19:35:29.675Z,48
2023-02-09T19:38:07.377Z,44
2023-02-09T19:40:37.225Z,43
2023-02-09T19:43:07.467Z,50
2023-02-09T19:45:43.646Z,52
2023-02-09T19:48:13.382Z,44
2023-02-09T19:50:43.358Z,40
2023-02-09T19:53:13.078Z,50
2023-02-09T19:55:46.479Z,70
2023-02-09T19:58:19.588Z,49
2023-02-09T20:00:52.858Z,48
2023-02-09T20:03:30.390Z,48
2023-02-09T20:05:59.947Z,45
2023-02-09T20:08:29.574Z,48
2023-02-09T20:11:01.173Z,40
2023-02-09T20:13:42.789Z,48
2023-02-09T20:16:15.982Z,46
2023-02-09T20:18:53.324Z,46
2023-02-09T20:21:24.770Z,36
2023-02-09T20:23:53.715Z,37
2023-02-09T20:26:22.148Z,39
2023-02-09T20:28:52.614Z,44
2023-02-09T20:34:00.141Z,41
2023-02-09T20:36:29.654Z,40
2023-02-09T20:38:59.492Z,45
2023-02-09T20:41:35.014Z,48
2023-02-09T20:49:57.854Z,48
2023-02-09T20:52:27.566Z,44
2023-02-09T20:54:57.901Z,45
2023-02-09T20:57:27.911Z,43
2023-02-09T20:59:57.840Z,41
2023-02-09T21:02:39.505Z,40
2023-02-09T21:05:09.112Z,40
2023-02-09T21:07:38.934Z,40
2023-02-09T21:10:09.024Z,40
2023-02-09T21:12:38.604Z,39
2023-02-09T21:15:08.463Z,40
2023-02-09T21:17:38.544Z,43
2023-02-09T21:20:08.646Z,40
2023-02-09T21:22:38.750Z,40
2023-02-09T21:25:09.448Z,38
2023-02-09T21:27:39.517Z,40
2023-02-09T21:30:09.539Z,38
2023-02-09T21:32:39.425Z,36
2023-02-09T21:35:09.135Z,37
2023-02-09T21:37:38.667Z,36
2023-02-09T21:40:12.241Z,35
2023-02-09T21:42:41.845Z,34
2023-02-09T21:45:11.689Z,36
2023-02-09T21:47:43.273Z,32
2023-02-09T21:50:13.143Z,32
2023-02-09T21:52:43.054Z,36
2023-02-09T21:55:13.735Z,32
2023-02-09T21:57:43.735Z,36
2023-02-09T22:00:13.757Z,34
2023-02-09T22:02:43.667Z,32
2023-02-09T22:05:13.703Z,35
2023-02-09T22:07:43.606Z,32
2023-02-09T22:10:14.261Z,35
2023-02-09T22:12:44.192Z,35
2023-02-09T22:15:14.862Z,31
2023-02-09T22:17:44.816Z,32
2023-02-09T22:20:15.416Z,34
2023-02-09T22:22:45.089Z,32
2023-02-09T22:25:21.101Z,32
2023-02-09T22:27:51.224Z,33
2023-02-09T22:30:21.324Z,32
2023-02-09T22:32:51.464Z,37
2023-02-09T22:35:21.918Z,33
2023-02-09T22:37:51.843Z,34
2023-02-09T22:40:21.739Z,35
2023-02-09T22:42:51.676Z,29
2023-02-09T22:45:22.238Z,36
2023-02-09T22:47:52.342Z,34
2023-02-09T22:50:22.873Z,36
2023-02-09T22:52:52.913Z,32
2023-02-09T22:55:23.735Z,32
2023-02-09T22:57:53.699Z,32
2023-02-09T23:00:23.828Z,36
2023-02-09T23:02:53.803Z,36
2023-02-09T23:05:24.496Z,35
2023-02-09T23:07:54.549Z,34
2023-02-09T23:10:24.457Z,33
2023-02-09T23:12:55.130Z,36
2023-02-09T23:15:48.296Z,32
2023-02-09T23:18:18.654Z,32
2023-02-09T23:20:48.763Z,34
2023-02-09T23:23:22.093Z,36
2023-02-09T23:25:51.865Z,36
2023-02-09T23:28:21.816Z,34
2023-02-09T23:30:51.872Z,35
2023-02-09T23:33:22.017Z,30
2023-02-09T23:35:52.112Z,32
2023-02-09T23:38:22.102Z,32
2023-02-09T23:40:52.111Z,34
2023-02-09T23:43:22.062Z,36
2023-02-09T23:45:52.417Z,35
2023-02-09T23:48:22.297Z,36
2023-02-09T23:50:52.368Z,36
2023-02-09T23:53:22.525Z,36
2023-02-09T23:55:52.539Z,36
2023-02-09T23:58:22.726Z,36
